Time;durP1;ratioP1;P1;durP2;ratioP2;P2;SDS_P1;SDS_P2;PMS_P1;PMS_P2;Temp;Humidity;BMP_temperature;BMP_pressure;BME280_temperature;BME280_humidity;BME280_pressure;Samples;Min_cycle;Max_cycle;Signal;HPM_P1;HPM_P2
2022/08/25 00:02:11;;;;;;;;;;;;;;;27.52;55.07;100717.16;5043404;28;1086;-36
2022/08/25 00:04:39;;;;;;;;;;;;;;;27.56;55.07;100678.44;5056117;28;1331;-32
2022/08/25 00:07:07;;;;;;;;;;;;;;;27.57;55.10;100649.84;5056176;28;1064;-32
2022/08/25 00:09:34;;;;;;;;;;;;;;;27.57;55.39;100639.16;5054564;28;1303;-32
2022/08/25 00:12:03;;;;;;;;;;;;;;;27.62;55.14;100629.69;5054801;28;1094;-33
2022/08/25 00:14:32;;;;;;;;;;;;;;;27.66;56.08;100620.34;5054620;28;1973;-32
2022/08/25 00:16:59;;;;;;;;;;;;;;;27.67;55.33;100600.63;5054425;28;926;-34
2022/08/25 00:19:27;;;;;;;;;;;;;;;27.68;54.95;100580.94;5056033;28;1217;-34
2022/08/25 00:21:55;;;;;;;;;;;;;;;27.66;55.19;100572.19;5056159;28;989;-36
2022/08/25 00:24:21;;;;;;;;;;;;;;;27.60;55.52;100567.44;5054522;28;1205;-37
2022/08/25 00:26:50;;;;;;;;;;;;;;;27.62;55.27;100536.03;5054448;28;1233;-34
2022/08/25 00:29:17;;;;;;;;;;;;;;;27.65;55.33;100550.94;5054055;28;1343;-37
2022/08/25 00:31:44;;;;;;;;;;;;;;;27.57;55.29;100577.59;5055223;28;1024;-36
2022/08/25 00:34:14;;;;;;;;;;;;;;;27.55;55.61;100600.97;5055276;28;1918;-35
2022/08/25 00:36:41;;;;;;;;;;;;;;;27.58;55.55;100625.59;5055136;28;1121;-35
2022/08/25 00:39:08;;;;;;;;;;;;;;;27.57;55.20;100620.41;5054136;28;1221;-36
2022/08/25 00:41:35;;;;;;;;;;;;;;;27.59;55.08;100597.88;5055147;28;1080;-36
2022/08/25 00:44:03;;;;;;;;;;;;;;;27.55;54.97;100596.47;5054419;28;1288;-36
2022/08/25 00:46:32;;;;;;;;;;;;;;;27.62;54.69;100554.75;5055254;28;1332;-37
2022/08/25 00:49:00;;;;;;;;;;;;;;;27.49;54.19;100546.22;5054950;28;1233;-36
2022/08/25 00:51:47;;;;;;;;;;;;;;;27.42;54.36;100521.06;5054906;28;1061;-36
2022/08/25 00:54:26;;;;;;;;;;;;;;;27.45;54.31;100552.84;5054215;28;2095;-36
2022/08/25 00:56:53;;;;;;;;;;;;;;;27.57;54.97;100609.72;5053945;28;1119;-36
2022/08/25 00:59:21;;;;;;;;;;;;;;;27.60;55.14;100618.25;5054490;28;1177;-35
2022/08/25 01:01:48;;;;;;;;;;;;;;;27.63;54.51;100603.78;5054711;28;1083;-36
2022/08/25 01:04:16;;;;;;;;;;;;;;;27.61;54.61;100585.19;5054295;28;1201;-36
2022/08/25 01:06:44;;;;;;;;;;;;;;;27.62;54.50;100594.91;5054725;28;1079;-36
2022/08/25 01:09:14;;;;;;;;;;;;;;;27.62;53.93;100596.72;5054185;28;1289;-36
2022/08/25 01:11:41;;;;;;;;;;;;;;;27.56;53.37;100582.13;5054252;28;1496;-37
2022/08/25 01:14:09;;;;;;;;;;;;;;;27.47;53.35;100579.47;5054126;28;1993;-36
2022/08/25 01:16:37;;;;;;;;;;;;;;;27.47;53.52;100583.00;5054400;28;1067;-36
2022/08/25 01:19:04;;;;;;;;;;;;;;;27.53;53.06;100577.06;5054442;28;1244;-36
2022/08/25 01:21:36;;;;;;;;;;;;;;;27.54;53.23;100561.84;5054256;28;1184;-36
2022/08/25 01:24:03;;;;;;;;;;;;;;;27.46;53.70;100569.75;5054090;28;1288;-36
2022/08/25 01:26:31;;;;;;;;;;;;;;;27.41;53.32;100588.91;5053949;28;1112;-36
2022/08/25 01:31:45;;;;;;;;;;;;;;;27.42;53.13;100616.50;5054013;28;1192;-36
2022/08/25 01:34:12;;;;;;;;;;;;;;;27.38;52.89;100613.28;5053928;28;1918;-37
2022/08/25 01:36:40;;;;;;;;;;;;;;;27.40;52.86;100589.88;5054241;28;1126;-36
2022/08/25 01:39:06;;;;;;;;;;;;;;;27.43;52.91;100588.78;5054184;28;1351;-37
2022/08/25 01:41:33;;;;;;;;;;;;;;;27.47;53.21;100614.25;5053519;28;1443;-36
2022/08/25 01:44:00;;;;;;;;;;;;;;;27.45;52.79;100606.34;5053152;28;1310;-36
2022/08/25 01:46:27;;;;;;;;;;;;;;;27.43;52.80;100600.31;5054014;28;1049;-37
2022/08/25 01:48:54;;;;;;;;;;;;;;;27.23;52.70;100605.84;5053722;28;1284;-36
2022/08/25 01:51:23;;;;;;;;;;;;;;;27.22;52.65;100614.84;5053040;28;1079;-37
2022/08/25 01:53:49;;;;;;;;;;;;;;;27.19;52.70;100609.81;5053421;28;1492;-36
2022/08/25 01:56:16;;;;;;;;;;;;;;;27.33;53.13;100612.03;5053765;28;1914;-37
2022/08/25 01:58:45;;;;;;;;;;;;;;;27.27;52.47;100620.63;5053565;28;1232;-37
2022/08/25 02:01:14;;;;;;;;;;;;;;;27.29;52.19;100618.66;5053491;28;990;-36
2022/08/25 02:03:43;;;;;;;;;;;;;;;27.04;52.70;100614.78;5053278;28;1307;-38
2022/08/25 02:06:12;;;;;;;;;;;;;;;27.09;52.78;100618.69;5053748;28;1103;-37
2022/08/25 02:08:39;;;;;;;;;;;;;;;27.11;52.71;100607.88;5053419;28;1279;-37
2022/08/25 02:11:10;;;;;;;;;;;;;;;27.01;52.81;100609.72;5053507;28;1087;-37
2022/08/25 02:13:39;;;;;;;;;;;;;;;27.07;52.75;100618.00;5053289;28;1304;-36
2022/08/25 02:16:06;;;;;;;;;;;;;;;27.19;53.06;100618.66;5053120;28;1975;-36
2022/08/25 02:18:33;;;;;;;;;;;;;;;27.23;52.86;100617.41;5053515;28;1173;-36
2022/08/25 02:21:00;;;;;;;;;;;;;;;27.19;52.91;100609.81;5053277;28;1176;-36
2022/08/25 02:23:27;;;;;;;;;;;;;;;27.16;52.38;100605.59;5052959;28;1303;-37
2022/08/25 02:25:56;;;;;;;;;;;;;;;26.96;52.31;100610.13;5053172;28;1521;-36
2022/08/25 02:28:22;;;;;;;;;;;;;;;27.04;51.96;100612.94;5053291;28;1720;-36
2022/08/25 02:30:51;;;;;;;;;;;;;;;27.08;51.92;100613.50;5052184;28;1052;-36
2022/08/25 02:33:24;;;;;;;;;;;;;;;26.93;52.26;100622.97;5052345;28;1269;-35
2022/08/25 02:35:50;;;;;;;;;;;;;;;26.82;52.25;100609.72;5052841;28;1981;-36
2022/08/25 02:38:17;;;;;;;;;;;;;;;26.87;52.84;100610.16;5053421;28;1284;-36
2022/08/25 02:40:43;;;;;;;;;;;;;;;26.92;52.52;100602.56;5053227;28;1128;-36
2022/08/25 02:43:10;;;;;;;;;;;;;;;26.90;52.74;100607.22;5053117;28;1638;-36
2022/08/25 02:45:37;;;;;;;;;;;;;;;26.84;52.42;100599.75;5053130;28;1119;-37
2022/08/25 02:48:03;;;;;;;;;;;;;;;26.79;52.81;100605.50;5053119;28;1311;-36
2022/08/25 02:50:31;;;;;;;;;;;;;;;26.74;52.31;100599.75;5053030;28;1268;-34
2022/08/25 02:52:57;;;;;;;;;;;;;;;26.85;52.10;100596.94;5052990;28;1725;-36
2022/08/25 02:55:24;;;;;;;;;;;;;;;26.73;52.19;100591.84;5052842;28;1899;-36
2022/08/25 02:57:50;;;;;;;;;;;;;;;26.79;51.94;100581.44;5052928;28;1221;-37
2022/08/25 03:00:17;;;;;;;;;;;;;;;26.73;51.97;100592.69;5052844;28;1037;-35
2022/08/25 03:02:45;;;;;;;;;;;;;;;26.75;51.04;100584.56;5055453;28;1221;-36
2022/08/25 03:05:13;;;;;;;;;;;;;;;26.76;50.62;100579.06;5056882;28;1128;-37
2022/08/25 03:07:40;;;;;;;;;;;;;;;26.77;50.58;100579.91;5055918;28;1213;-36
2022/08/25 03:10:09;;;;;;;;;;;;;;;26.85;50.35;100582.72;5056761;28;1100;-36
2022/08/25 03:12:35;;;;;;;;;;;;;;;26.78;50.61;100576.25;5056583;28;1213;-36
2022/08/25 03:15:03;;;;;;;;;;;;;;;26.81;53.06;100578.69;5056718;28;1917;-36
2022/08/25 03:17:34;;;;;;;;;;;;;;;26.85;53.64;100580.91;5056276;28;1271;-34
2022/08/25 03:20:02;;;;;;;;;;;;;;;26.79;55.70;100580.59;5056297;28;795;-36
2022/08/25 03:22:31;;;;;;;;;;;;;;;26.84;56.39;100579.19;5056706;28;1260;-35
2022/08/25 03:26:52;;;;;;;;;;;;;;;26.86;55.97;100576.41;5056449;28;1116;-36
2022/08/25 03:27:50;;;;;;;;;;;;;;;26.76;57.33;100581.72;5056303;28;1281;-36
2022/08/25 03:30:17;;;;;;;;;;;;;;;26.75;57.78;100587.22;5056222;28;1108;-34
2022/08/25 03:32:43;;;;;;;;;;;;;;;26.69;58.63;100598.47;5056162;28;1214;-35
2022/08/25 03:35:10;;;;;;;;;;;;;;;26.69;59.83;100595.81;5056035;28;1918;-34
2022/08/25 03:37:37;;;;;;;;;;;;;;;26.77;59.64;100594.13;5055240;28;1228;-34
2022/08/25 03:40:04;;;;;;;;;;;;;;;26.75;60.43;100590.72;5055623;28;724;-33
2022/08/25 03:42:31;;;;;;;;;;;;;;;26.70;61.65;100592.13;5056358;28;1268;-35
2022/08/25 03:44:58;;;;;;;;;;;;;;;26.73;61.63;100592.69;5055955;28;1068;-35
2022/08/25 03:47:25;;;;;;;;;;;;;;;26.69;62.27;100601.16;5056191;28;1260;-36
2022/08/25 03:49:51;;;;;;;;;;;;;;;26.66;62.46;100588.91;5055676;28;1001;-35
2022/08/25 03:52:18;;;;;;;;;;;;;;;26.70;62.66;100586.78;5054473;28;1318;-35
2022/08/25 03:54:45;;;;;;;;;;;;;;;26.69;62.50;100596.63;5055471;28;1973;-35
2022/08/25 03:57:11;;;;;;;;;;;;;;;26.61;62.95;100594.69;5055875;28;1140;-36
2022/08/25 03:59:38;;;;;;;;;;;;;;;26.68;63.08;100589.63;5055355;28;1356;-35
2022/08/25 04:02:05;;;;;;;;;;;;;;;26.63;63.56;100597.19;5054527;28;1136;-35
2022/08/25 04:04:32;;;;;;;;;;;;;;;26.57;64.30;100593.28;5053634;28;1296;-35
2022/08/25 04:06:59;;;;;;;;;;;;;;;26.59;64.19;100601.16;5069000;28;1092;-35
2022/08/25 04:09:25;;;;;;;;;;;;;;;26.56;64.23;100596.94;5053109;28;1315;-35
2022/08/25 04:11:56;;;;;;;;;;;;;;;26.60;64.37;100597.47;5053626;28;1163;-36
2022/08/25 04:14:22;;;;;;;;;;;;;;;26.66;64.00;100599.59;5052266;28;1197;-36
2022/08/25 04:16:49;;;;;;;;;;;;;;;26.85;63.01;100617.47;5053431;28;1913;-35
2022/08/25 04:19:16;;;;;;;;;;;;;;;26.86;63.65;100620.00;5054301;28;1300;-35
2022/08/25 04:21:42;;;;;;;;;;;;;;;26.85;63.69;100617.47;5055111;28;1669;-35
2022/08/25 04:24:11;;;;;;;;;;;;;;;26.87;63.39;100619.00;5054433;28;1298;-35
2022/08/25 04:26:40;;;;;;;;;;;;;;;26.84;64.16;100618.47;5054910;28;1164;-36
2022/08/25 04:29:08;;;;;;;;;;;;;;;26.83;64.19;100627.47;5054267;28;1306;-35
2022/08/25 04:31:37;;;;;;;;;;;;;;;26.77;64.46;100633.34;5055365;28;1025;-35
2022/08/25 04:34:04;;;;;;;;;;;;;;;26.75;63.93;100638.81;5054958;28;1315;-35
2022/08/25 04:36:51;;;;;;;;;;;;;;;26.50;64.95;100642.91;5055187;28;2011;-36
2022/08/25 04:39:19;;;;;;;;;;;;;;;26.71;64.44;100652.63;5055000;28;1213;-36
2022/08/25 04:41:46;;;;;;;;;;;;;;;26.70;64.39;100645.56;5055023;28;1033;-36
2022/08/25 04:44:13;;;;;;;;;;;;;;;26.69;64.86;100666.09;5054892;28;1233;-36
2022/08/25 04:46:40;;;;;;;;;;;;;;;26.83;64.21;100673.75;5054975;28;1678;-36
2022/08/25 04:49:06;;;;;;;;;;;;;;;26.80;64.70;100679.38;5054739;28;1200;-36
2022/08/25 04:51:35;;;;;;;;;;;;;;;26.80;64.59;100676.69;5054689;28;1051;-35
2022/08/25 04:54:04;;;;;;;;;;;;;;;26.79;64.71;100684.81;5054410;28;1807;-36
2022/08/25 04:56:33;;;;;;;;;;;;;;;26.85;64.38;100692.28;5054632;28;1909;-35
2022/08/25 04:59:01;;;;;;;;;;;;;;;26.86;64.25;100691.31;5054851;28;1217;-35
2022/08/25 05:01:28;;;;;;;;;;;;;;;26.75;64.73;100697.59;5053749;28;1740;-35
2022/08/25 05:03:56;;;;;;;;;;;;;;;26.43;64.82;100692.53;5049651;28;1209;-36
2022/08/25 05:06:23;;;;;;;;;;;;;;;26.51;64.51;100695.34;5033239;28;1040;-36
2022/08/25 05:08:50;;;;;;;;;;;;;;;26.28;64.88;100699.25;5036738;28;1229;-36
2022/08/25 05:11:17;;;;;;;;;;;;;;;26.31;65.62;100695.44;5034412;28;1116;-36
2022/08/25 05:13:47;;;;;;;;;;;;;;;26.47;64.78;100693.94;5049121;28;1236;-36
2022/08/25 05:16:17;;;;;;;;;;;;;;;26.53;64.29;100690.72;5034262;28;1887;-36
2022/08/25 05:18:44;;;;;;;;;;;;;;;26.68;63.83;100692.97;5038249;28;1218;-36
2022/08/25 05:21:15;;;;;;;;;;;;;;;26.58;63.53;100698.31;5054169;28;1076;-36
2022/08/25 05:23:42;;;;;;;;;;;;;;;26.60;63.39;100697.19;5052924;28;1209;-37
2022/08/25 05:26:10;;;;;;;;;;;;;;;26.59;62.70;100703.53;5053933;28;1083;-36
2022/08/25 05:28:41;;;;;;;;;;;;;;;26.75;62.34;100699.47;5053870;28;1386;-36
2022/08/25 05:31:09;;;;;;;;;;;;;;;26.61;61.95;100698.88;5054062;28;1096;-36
2022/08/25 05:33:36;;;;;;;;;;;;;;;26.76;62.24;100706.47;5053856;28;1319;-34
2022/08/25 05:36:03;;;;;;;;;;;;;;;26.80;61.32;100700.75;5053539;28;1981;-35
2022/08/25 05:38:30;;;;;;;;;;;;;;;26.66;60.54;100703.78;5053717;28;1161;-35
2022/08/25 05:40:58;;;;;;;;;;;;;;;26.64;60.11;100700.41;5053737;28;1157;-35
2022/08/25 05:43:25;;;;;;;;;;;;;;;26.65;59.88;100701.25;5053494;28;1327;-35
2022/08/25 05:45:55;;;;;;;;;;;;;;;26.50;59.71;100709.69;5053513;28;1094;-33
2022/08/25 05:48:22;;;;;;;;;;;;;;;26.52;59.18;100713.06;5053594;28;1292;-35
2022/08/25 05:50:52;;;;;;;;;;;;;;;26.43;59.25;100707.69;5053524;28;1112;-35
2022/08/25 05:53:19;;;;;;;;;;;;;;;26.58;59.00;100698.31;5053196;28;1327;-35
2022/08/25 05:55:46;;;;;;;;;;;;;;;26.57;59.30;100700.13;5053285;28;1913;-34
2022/08/25 05:58:13;;;;;;;;;;;;;;;26.58;59.23;100711.66;5044968;28;1301;-35
2022/08/25 06:00:40;;;;;;;;;;;;;;;26.54;59.25;100712.91;5033186;28;1118;-36
2022/08/25 06:03:07;;;;;;;;;;;;;;;26.54;59.26;100718.25;5046992;28;1268;-35
2022/08/25 06:05:33;;;;;;;;;;;;;;;26.44;59.27;100720.09;5053247;28;1131;-37
2022/08/25 06:08:00;;;;;;;;;;;;;;;26.52;59.24;100742.44;5052018;28;1272;-35
2022/08/25 06:10:27;;;;;;;;;;;;;;;26.58;59.20;100736.56;5053385;28;1090;-35
2022/08/25 06:12:53;;;;;;;;;;;;;;;26.46;59.40;100745.66;5053328;28;1205;-35
2022/08/25 06:15:23;;;;;;;;;;;;;;;26.43;58.97;100750.44;5052804;28;1906;-34
2022/08/25 06:17:50;;;;;;;;;;;;;;;26.41;58.99;100747.91;5052853;28;1221;-40
2022/08/25 06:20:22;;;;;;;;;;;;;;;26.46;58.56;100752.81;5053295;28;1115;-36
2022/08/25 06:22:51;;;;;;;;;;;;;;;26.52;58.56;100750.47;5053062;28;1391;-36
2022/08/25 06:25:20;;;;;;;;;;;;;;;26.53;58.10;100752.16;5053445;28;1063;-37
2022/08/25 06:27:46;;;;;;;;;;;;;;;26.60;57.70;100755.94;5051106;28;1405;-34
2022/08/25 06:30:15;;;;;;;;;;;;;;;26.59;57.39;100759.63;5049147;28;1164;-35
2022/08/25 06:32:49;;;;;;;;;;;;;;;26.59;56.99;100761.44;5052406;28;1359;-35
2022/08/25 06:35:18;;;;;;;;;;;;;;;26.63;56.79;100767.38;5051403;28;1984;-34
2022/08/25 06:37:45;;;;;;;;;;;;;;;26.69;56.27;100778.31;5055551;28;1244;-35
2022/08/25 06:40:13;;;;;;;;;;;;;;;26.75;56.51;100768.94;5056695;28;1267;-33
2022/08/25 06:42:40;;;;;;;;;;;;;;;26.69;54.17;100770.31;5057148;28;1227;-34
2022/08/25 06:45:07;;;;;;;;;;;;;;;26.74;54.90;100757.41;5056823;28;1028;-34
2022/08/25 06:47:33;;;;;;;;;;;;;;;26.82;55.19;100764.72;5056911;28;1228;-35
2022/08/25 06:50:02;;;;;;;;;;;;;;;26.80;52.84;100756.03;5055940;28;1117;-35
2022/08/25 06:52:29;;;;;;;;;;;;;;;26.83;51.74;100758.41;5056757;28;1240;-34
2022/08/25 06:54:56;;;;;;;;;;;;;;;26.87;52.07;100743.78;5056236;28;1338;-35
2022/08/25 06:57:22;;;;;;;;;;;;;;;26.99;54.47;100743.50;5056868;28;1914;-37
2022/08/25 06:59:49;;;;;;;;;;;;;;;27.06;54.28;100755.31;5055914;28;1032;-36
2022/08/25 07:02:19;;;;;;;;;;;;;;;27.04;53.88;100746.63;5056382;28;1119;-35
2022/08/25 07:04:48;;;;;;;;;;;;;;;27.04;52.30;100746.63;5056719;28;1068;-36
2022/08/25 07:07:14;;;;;;;;;;;;;;;27.11;53.77;100741.56;5056914;28;1284;-37
2022/08/25 07:09:41;;;;;;;;;;;;;;;27.15;53.12;100749.13;5054536;28;1271;-36
2022/08/25 07:12:08;;;;;;;;;;;;;;;27.21;53.72;100753.06;5064776;28;1343;-36
2022/08/25 07:14:35;;;;;;;;;;;;;;;27.22;53.19;100756.59;5062218;28;1382;-36
2022/08/25 07:17:02;;;;;;;;;;;;;;;27.11;50.86;100762.94;5070350;28;1909;-36
2022/08/25 07:19:37;;;;;;;;;;;;;;;27.12;50.10;100767.28;5062807;28;1576;-35
2022/08/25 07:22:06;;;;;;;;;;;;;;;26.99;50.25;100770.22;5074694;28;1187;-37
2022/08/25 07:24:34;;;;;;;;;;;;;;;27.09;50.80;100773.75;5075641;28;1228;-36
2022/08/25 07:27:01;;;;;;;;;;;;;;;27.09;51.39;100770.22;5076124;28;1147;-36
2022/08/25 07:29:28;;;;;;;;;;;;;;;27.18;52.35;100769.38;5075946;28;1158;-34
2022/08/25 07:32:01;;;;;;;;;;;;;;;27.09;49.80;100770.22;5050513;28;1068;-36
2022/08/25 07:37:19;;;;;;;;;;;;;;;27.18;50.91;100780.09;5075888;28;1987;-37
2022/08/25 07:40:06;;;;;;;;;;;;;;;27.24;50.73;100779.53;5075645;28;2057;-37
2022/08/25 07:42:32;;;;;;;;;;;;;;;27.30;51.67;100781.63;5075312;28;1362;-35
2022/08/25 07:44:59;;;;;;;;;;;;;;;27.19;49.72;100784.47;5075839;28;1742;-36
2022/08/25 07:47:25;;;;;;;;;;;;;;;27.28;50.02;100794.31;5069105;28;1291;-36
2022/08/25 07:49:52;;;;;;;;;;;;;;;27.32;51.60;100803.75;5064829;28;1028;-36
2022/08/25 07:52:20;;;;;;;;;;;;;;;27.41;51.80;100810.91;5075254;28;1149;-36
2022/08/25 07:54:46;;;;;;;;;;;;;;;27.31;51.31;100809.22;5075329;28;1603;-36
2022/08/25 07:57:13;;;;;;;;;;;;;;;27.31;49.41;100815.41;5065250;28;1913;-37
2022/08/25 07:59:40;;;;;;;;;;;;;;;27.16;49.87;100822.19;5061156;28;1385;-36
2022/08/25 08:02:09;;;;;;;;;;;;;;;27.18;49.92;100824.72;5056445;28;1718;-35
2022/08/25 08:04:45;;;;;;;;;;;;;;;27.21;49.89;100835.13;5053870;28;1324;-37
2022/08/25 08:07:11;;;;;;;;;;;;;;;27.31;49.87;100822.59;5055513;28;1078;-36
2022/08/25 08:09:38;;;;;;;;;;;;;;;27.31;49.89;100819.91;5054870;28;1306;-36
2022/08/25 08:12:05;;;;;;;;;;;;;;;27.26;49.92;100830.22;5060656;28;1102;-36
2022/08/25 08:14:33;;;;;;;;;;;;;;;27.39;50.87;100831.59;5055038;28;1190;-36
2022/08/25 08:17:04;;;;;;;;;;;;;;;27.40;50.99;100835.13;5071768;28;1911;-34
2022/08/25 08:19:31;;;;;;;;;;;;;;;27.49;50.02;100837.81;5074461;28;1272;-36
2022/08/25 08:21:59;;;;;;;;;;;;;;;27.53;50.99;100839.25;5058474;28;1053;-34
2022/08/25 08:24:28;;;;;;;;;;;;;;;27.50;50.10;100834.19;5060954;28;1469;-34
2022/08/25 08:27:15;;;;;;;;;;;;;;;27.57;51.12;100831.78;5065888;28;2088;-34
2022/08/25 08:29:44;;;;;;;;;;;;;;;27.59;51.86;100822.63;5051998;28;1434;-32
2022/08/25 08:32:12;;;;;;;;;;;;;;;27.57;50.83;100821.91;5053158;28;1098;-34
2022/08/25 08:34:40;;;;;;;;;;;;;;;27.69;50.24;100828.78;5054891;28;1359;-36
2022/08/25 08:37:07;;;;;;;;;;;;;;;27.73;50.99;100839.19;5072142;28;2061;-33
2022/08/25 08:39:36;;;;;;;;;;;;;;;27.76;50.99;100838.91;5074430;28;1217;-34
2022/08/25 08:42:15;;;;;;;;;;;;;;;27.74;50.69;100846.25;5073855;28;1080;-34
2022/08/25 08:44:42;;;;;;;;;;;;;;;27.78;51.37;100853.03;5074859;28;1419;-35
2022/08/25 08:47:16;;;;;;;;;;;;;;;27.69;51.90;100849.38;5074546;28;1058;-33
2022/08/25 08:49:55;;;;;;;;;;;;;;;27.74;51.96;100857.81;5074461;28;1192;-34
2022/08/25 08:52:27;;;;;;;;;;;;;;;27.77;51.92;100857.53;5074458;28;1096;-34
2022/08/25 08:54:59;;;;;;;;;;;;;;;27.85;52.35;100864.81;5061171;28;1567;-33
2022/08/25 08:57:27;;;;;;;;;;;;;;;27.89;52.65;100863.56;5054705;28;1991;-35
2022/08/25 08:59:59;;;;;;;;;;;;;;;27.87;54.53;100874.44;5053626;28;1166;-34
2022/08/25 09:02:30;;;;;;;;;;;;;;;27.85;55.07;100884.41;5054172;28;1295;-36
2022/08/25 09:05:18;;;;;;;;;;;;;;;27.84;56.25;100885.41;5054362;28;1126;-33
2022/08/25 09:07:47;;;;;;;;;;;;;;;27.85;56.84;100880.88;5049928;28;1426;-35
2022/08/25 09:10:21;;;;;;;;;;;;;;;27.86;56.55;100887.94;5052051;28;1110;-35
2022/08/25 09:13:11;;;;;;;;;;;;;;;27.90;56.48;100894.72;5053425;28;1252;-36
2022/08/25 09:18:48;;;;;;;;;;;;;;;28.03;56.42;100909.47;5068800;28;1264;-35
2022/08/25 09:21:29;;;;;;;;;;;;;;;27.98;57.28;100903.72;5065251;28;1149;-37
2022/08/25 09:24:04;;;;;;;;;;;;;;;28.06;57.56;100905.69;5049423;28;1256;-36
2022/08/25 09:26:37;;;;;;;;;;;;;;;28.02;57.43;100905.13;5054588;28;1160;-37
2022/08/25 09:29:08;;;;;;;;;;;;;;;28.00;58.38;100899.03;5059773;28;1228;-35
2022/08/25 09:31:42;;;;;;;;;;;;;;;28.05;58.11;100901.34;5051717;28;1172;-32
2022/08/25 09:34:16;;;;;;;;;;;;;;;28.02;57.97;100901.59;5052448;28;1264;-37
2022/08/25 09:36:44;;;;;;;;;;;;;;;28.10;57.71;100897.22;5052729;28;1983;-34
2022/08/25 09:39:14;;;;;;;;;;;;;;;28.14;56.67;100884.41;5051644;28;1284;-36
2022/08/25 09:41:54;;;;;;;;;;;;;;;28.11;56.79;100874.84;5051519;28;1344;-37
2022/08/25 09:44:27;;;;;;;;;;;;;;;28.09;57.10;100878.63;5052347;28;1299;-39
2022/08/25 09:47:03;;;;;;;;;;;;;;;28.09;57.19;100870.59;5052680;28;1030;-36
2022/08/25 09:49:31;;;;;;;;;;;;;;;28.26;56.52;100872.53;5050802;28;1335;-33
2022/08/25 09:52:15;;;;;;;;;;;;;;;28.25;57.21;100876.19;5052134;28;1153;-34
2022/08/25 09:54:42;;;;;;;;;;;;;;;28.27;58.47;100876.88;5051594;28;1388;-36
2022/08/25 09:57:31;;;;;;;;;;;;;;;28.26;57.67;100880.56;5052277;28;1918;-35
2022/08/25 10:00:18;;;;;;;;;;;;;;;28.11;59.08;100887.38;5051414;28;1107;-37
2022/08/25 10:03:01;;;;;;;;;;;;;;;28.16;62.26;100895.81;5051321;28;1770;-36
2022/08/25 10:05:34;;;;;;;;;;;;;;;28.27;61.25;100890.25;5051912;28;1080;-36
2022/08/25 10:08:02;;;;;;;;;;;;;;;28.41;60.07;100894.31;5052023;28;1312;-35
2022/08/25 10:10:34;;;;;;;;;;;;;;;28.32;60.19;100890.69;5051469;28;914;-35
2022/08/25 10:13:02;;;;;;;;;;;;;;;28.23;59.98;100888.88;5031581;28;1169;-35
2022/08/25 10:15:34;;;;;;;;;;;;;;;28.29;59.64;100885.63;5051877;28;1469;-34
2022/08/25 10:18:20;;;;;;;;;;;;;;;28.32;59.73;100890.69;5067826;28;1993;-34
2022/08/25 10:21:03;;;;;;;;;;;;;;;28.30;59.26;100891.84;5068937;28;987;-34
2022/08/25 10:23:48;;;;;;;;;;;;;;;28.39;59.17;100891.78;5058612;28;1516;-36
2022/08/25 10:26:34;;;;;;;;;;;;;;;28.38;59.17;100883.91;5052447;28;1048;-35
2022/08/25 10:29:00;;;;;;;;;;;;;;;28.28;59.47;100877.72;5059094;28;1466;-39
2022/08/25 10:31:36;;;;;;;;;;;;;;;28.25;59.64;100868.16;5055751;28;1278;-40
2022/08/25 10:34:17;;;;;;;;;;;;;;;28.30;59.34;100865.03;5057752;28;1320;-43
2022/08/25 10:37:00;;;;;;;;;;;;;;;28.40;60.04;100861.31;5050666;28;1987;-46
2022/08/25 10:39:37;;;;;;;;;;;;;;;28.46;59.25;100854.53;5062045;28;1252;-40
2022/08/25 10:42:19;;;;;;;;;;;;;;;28.51;59.67;100847.75;5059642;28;1156;-44
2022/08/25 10:47:47;;;;;;;;;;;;;;;28.77;60.85;100853.28;5052541;28;1339;-41
2022/08/25 10:50:23;;;;;;;;;;;;;;;28.86;61.63;100846.19;5054328;28;1084;-42
2022/08/25 10:52:59;;;;;;;;;;;;;;;28.54;61.97;100831.38;5052239;28;1264;-44
2022/08/25 10:55:48;;;;;;;;;;;;;;;28.71;62.21;100838.66;5048201;28;1475;-41
2022/08/25 10:58:16;;;;;;;;;;;;;;;28.79;61.54;100835.19;5052040;28;1914;-39
2022/08/25 11:00:48;;;;;;;;;;;;;;;28.54;61.98;100828.72;5054738;28;1134;-42
2022/08/25 11:03:38;;;;;;;;;;;;;;;28.48;62.32;100818.59;5052345;28;1292;-44
2022/08/25 11:06:11;;;;;;;;;;;;;;;28.45;61.97;100821.56;5046693;28;1184;-43
2022/08/25 11:08:50;;;;;;;;;;;;;;;28.43;62.31;100818.16;5052467;28;1257;-42
2022/08/25 11:11:31;;;;;;;;;;;;;;;28.50;61.55;100816.59;5053855;28;1756;-42
2022/08/25 11:14:01;;;;;;;;;;;;;;;28.50;61.69;100819.25;5052447;28;1244;-44
2022/08/25 11:16:44;;;;;;;;;;;;;;;28.64;62.77;100812.53;5054257;28;1918;-41
2022/08/25 11:19:19;;;;;;;;;;;;;;;28.97;61.75;100816.50;5051198;28;1359;-41
2022/08/25 11:21:49;;;;;;;;;;;;;;;28.93;62.25;100809.72;5054777;28;995;-44
2022/08/25 11:24:28;;;;;;;;;;;;;;;28.70;61.67;100798.56;5055357;28;1229;-42
2022/08/25 11:26:56;;;;;;;;;;;;;;;28.64;61.94;100802.72;5056533;28;1090;-47
2022/08/25 11:29:30;;;;;;;;;;;;;;;28.65;62.31;100798.19;5054290;28;1269;-42
2022/08/25 11:31:58;;;;;;;;;;;;;;;28.76;61.62;100786.44;5053754;28;1059;-41
2022/08/25 11:34:29;;;;;;;;;;;;;;;28.80;61.49;100780.59;5052891;28;1289;-42
2022/08/25 11:36:59;;;;;;;;;;;;;;;28.85;61.08;100780.97;5057271;28;1918;-42
2022/08/25 11:39:29;;;;;;;;;;;;;;;28.81;61.31;100776.09;5055978;28;1209;-38
2022/08/25 11:42:18;;;;;;;;;;;;;;;28.77;60.48;100774.69;5055765;28;1052;-38
2022/08/25 11:44:51;;;;;;;;;;;;;;;28.84;60.90;100770.44;5055126;28;1315;-38
2022/08/25 11:47:19;;;;;;;;;;;;;;;28.91;60.89;100775.00;5035194;28;1072;-39
2022/08/25 11:49:49;;;;;;;;;;;;;;;29.01;60.39;100769.56;5052885;28;1328;-41
2022/08/25 11:52:31;;;;;;;;;;;;;;;29.00;61.03;100768.72;5055044;28;1070;-39
2022/08/25 11:55:09;;;;;;;;;;;;;;;29.05;60.48;100766.44;5056989;28;1292;-39
2022/08/25 11:57:36;;;;;;;;;;;;;;;29.04;60.61;100775.47;5054554;28;1972;-38
2022/08/25 12:00:19;;;;;;;;;;;;;;;29.09;60.18;100770.50;5054900;28;1049;-37
2022/08/25 12:02:47;;;;;;;;;;;;;;;29.21;60.90;100776.50;5054927;28;1220;-38
2022/08/25 12:05:20;;;;;;;;;;;;;;;28.87;61.60;100770.97;5066089;28;1651;-37
2022/08/25 12:08:39;;;;;;;;;;;;;;;29.04;61.59;100780.00;5064776;28;1264;-39
2022/08/25 12:10:57;;;;;;;;;;;;;;;28.98;60.94;100775.25;5066937;28;1693;-40
2022/08/25 12:13:24;;;;;;;;;;;;;;;29.20;60.51;100786.38;5056467;28;1619;-42
2022/08/25 12:15:50;;;;;;;;;;;;;;;29.16;60.24;100794.88;5059121;28;1256;-41
2022/08/25 12:18:20;;;;;;;;;;;;;;;29.47;58.73;100782.75;5054738;28;1914;-43
2022/08/25 12:20:56;;;;;;;;;;;;;;;29.45;58.38;100800.88;5055245;28;1055;-41
2022/08/25 12:23:37;;;;;;;;;;;;;;;29.13;61.22;100795.16;5057994;28;1555;-40
2022/08/25 12:26:09;;;;;;;;;;;;;;;29.20;60.85;100791.72;5054933;28;1012;-39
2022/08/25 12:28:36;;;;;;;;;;;;;;;29.18;61.23;100799.06;5057014;28;1364;-43
2022/08/25 12:31:09;;;;;;;;;;;;;;;29.31;60.72;100798.72;5055265;28;1087;-39
2022/08/25 12:33:35;;;;;;;;;;;;;;;29.50;60.06;100793.19;5062881;28;1696;-45
2022/08/25 12:36:03;;;;;;;;;;;;;;;29.34;61.30;100794.88;5073851;28;1117;-40
2022/08/25 12:38:33;;;;;;;;;;;;;;;29.72;60.77;100786.47;5066075;28;1905;-42
2022/08/25 12:41:08;;;;;;;;;;;;;;;29.58;61.02;100789.69;5054915;28;1032;-40
2022/08/25 12:43:39;;;;;;;;;;;;;;;29.48;60.91;100795.19;5063637;28;1328;-44
2022/08/25 12:46:19;;;;;;;;;;;;;;;29.19;62.32;100783.81;5051775;28;755;-44
2022/08/25 12:48:54;;;;;;;;;;;;;;;29.58;61.54;100795.06;5054918;28;1269;-41
2022/08/25 12:51:22;;;;;;;;;;;;;;;29.36;61.80;100791.06;5054771;28;1681;-41
2022/08/25 12:53:52;;;;;;;;;;;;;;;29.36;61.33;100792.91;5060685;28;1652;-45
2022/08/25 12:56:18;;;;;;;;;;;;;;;29.04;62.35;100790.72;5056733;28;1337;-44
2022/08/25 12:59:02;;;;;;;;;;;;;;;29.12;61.70;100790.81;5065163;28;1906;-40
2022/08/25 13:01:47;;;;;;;;;;;;;;;28.97;62.55;100789.66;5054743;28;1060;-44
2022/08/25 13:04:37;;;;;;;;;;;;;;;29.01;61.79;100788.34;5054326;28;1295;-44
2022/08/25 13:07:32;;;;;;;;;;;;;;;29.32;60.45;100789.69;5052096;28;1111;-42
2022/08/25 13:10:09;;;;;;;;;;;;;;;29.43;60.68;100789.44;5053237;28;1421;-44
2022/08/25 13:12:42;;;;;;;;;;;;;;;29.09;61.94;100785.75;5050603;28;1442;-42
2022/08/25 13:15:29;;;;;;;;;;;;;;;29.24;61.77;100784.25;5065102;28;1304;-41
2022/08/25 13:18:11;;;;;;;;;;;;;;;29.42;60.08;100785.09;5053353;28;1981;-39